Time;durP1;ratioP1;P1;durP2;ratioP2;P2;SDS_P1;SDS_P2;PMS_P1;PMS_P2;Temp;Humidity;BMP_temperature;BMP_pressure;BME280_temperature;BME280_humidity;BME280_pressure;Samples;Min_cycle;Max_cycle;Signal;HPM_P1;HPM_P2
2023/08/14 00:00:52;;;;;;;20.43;19.10;;;;;;;;;;5138197;27;20446;-86
2023/08/14 00:03:20;;;;;;;19.67;18.57;;;;;;;;;;5138549;27;20463;-86
2023/08/14 00:05:47;;;;;;;20.73;19.03;;;;;;;;;;5138615;27;20804;-86
2023/08/14 00:08:14;;;;;;;20.57;19.03;;;;;;;;;;5138269;27;20447;-86
2023/08/14 00:10:42;;;;;;;21.40;20.00;;;;;;;;;;5137565;27;20483;-86
2023/08/14 00:13:09;;;;;;;21.53;19.80;;;;;;;;;;5138298;27;20470;-86
2023/08/14 00:15:36;;;;;;;20.77;19.27;;;;;;;;;;5138195;27;20463;-86
2023/08/14 00:18:04;;;;;;;22.30;20.10;;;;;;;;;;5137823;27;20921;-86
2023/08/14 00:20:31;;;;;;;20.57;19.27;;;;;;;;;;5137225;27;20827;-86
2023/08/14 00:22:58;;;;;;;20.50;19.13;;;;;;;;;;5137994;27;20471;-86
2023/08/14 00:25:25;;;;;;;20.40;19.00;;;;;;;;;;5136684;27;20470;-86
2023/08/14 00:27:54;;;;;;;20.20;19.00;;;;;;;;;;5137477;27;20447;-86
2023/08/14 00:30:21;;;;;;;19.70;18.67;;;;;;;;;;5136543;27;20487;-86
2023/08/14 00:32:48;;;;;;;20.03;18.83;;;;;;;;;;5137463;27;20459;-86
2023/08/14 00:35:15;;;;;;;20.40;19.27;;;;;;;;;;5137083;27;20439;-86
2023/08/14 00:37:43;;;;;;;20.43;19.17;;;;;;;;;;5136447;27;20458;-86
2023/08/14 00:40:11;;;;;;;20.03;18.87;;;;;;;;;;5136376;27;20418;-86
2023/08/14 00:42:39;;;;;;;21.10;19.90;;;;;;;;;;5136962;27;20441;-86
2023/08/14 00:45:08;;;;;;;20.57;19.17;;;;;;;;;;5136991;27;20504;-86
2023/08/14 00:47:36;;;;;;;20.97;19.53;;;;;;;;;;5136511;27;20427;-86
2023/08/14 00:50:03;;;;;;;21.60;20.30;;;;;;;;;;5135847;27;20523;-86
2023/08/14 00:52:32;;;;;;;21.23;20.00;;;;;;;;;;5136431;27;20495;-86
2023/08/14 00:55:00;;;;;;;20.40;19.30;;;;;;;;;;5138660;27;20424;-86
2023/08/14 00:57:27;;;;;;;20.33;18.90;;;;;;;;;;5137361;27;20796;-86
2023/08/14 00:59:54;;;;;;;20.30;19.00;;;;;;;;;;5135499;27;20451;-86
2023/08/14 01:02:23;;;;;;;21.20;19.60;;;;;;;;;;5137494;27;20545;-86
2023/08/14 01:04:50;;;;;;;20.10;18.87;;;;;;;;;;5137053;27;20464;-86
2023/08/14 01:07:17;;;;;;;20.53;19.33;;;;;;;;;;5137064;27;20447;-86
2023/08/14 01:09:45;;;;;;;21.10;19.70;;;;;;;;;;5135843;27;20470;-86
2023/08/14 01:12:16;;;;;;;20.53;18.90;;;;;;;;;;5136352;27;20471;-86
2023/08/14 01:14:44;;;;;;;20.60;19.33;;;;;;;;;;5136079;27;20466;-86
2023/08/14 01:17:13;;;;;;;20.27;19.20;;;;;;;;;;5137301;27;20424;-86
2023/08/14 01:19:43;;;;;;;19.70;18.50;;;;;;;;;;5136483;27;20466;-86
2023/08/14 01:22:12;;;;;;;20.00;18.90;;;;;;;;;;5136725;27;20459;-86
2023/08/14 01:24:47;;;;;;;21.50;20.10;;;;;;;;;;5136822;27;20425;-86
2023/08/14 01:27:17;;;;;;;20.20;19.00;;;;;;;;;;5136757;27;20450;-86
2023/08/14 01:29:45;;;;;;;20.63;19.00;;;;;;;;;;5135220;27;20502;-86
2023/08/14 01:32:12;;;;;;;21.00;19.20;;;;;;;;;;5136293;27;20462;-86
2023/08/14 01:34:39;;;;;;;20.03;18.83;;;;;;;;;;5136088;27;20424;-86
2023/08/14 01:37:10;;;;;;;22.13;20.60;;;;;;;;;;5136229;28;20454;-85
2023/08/14 01:39:42;;;;;;;20.77;19.43;;;;;;;;;;5135854;28;20462;-86
2023/08/14 01:42:11;;;;;;;20.60;19.20;;;;;;;;;;5136443;28;20520;-86
2023/08/14 01:44:41;;;;;;;20.40;19.07;;;;;;;;;;5136195;28;20450;-86
2023/08/14 01:47:11;;;;;;;19.67;18.37;;;;;;;;;;5136589;28;20451;-86
2023/08/14 01:49:39;;;;;;;20.03;18.80;;;;;;;;;;5135592;28;20482;-85
2023/08/14 01:52:07;;;;;;;21.10;19.50;;;;;;;;;;5135431;28;21415;-86
2023/08/14 01:54:34;;;;;;;21.53;20.13;;;;;;;;;;5136211;28;20405;-85
2023/08/14 01:57:01;;;;;;;20.23;18.93;;;;;;;;;;5135708;28;20431;-86
2023/08/14 01:59:32;;;;;;;21.20;19.90;;;;;;;;;;5136104;28;20453;-86
2023/08/14 02:02:00;;;;;;;20.03;19.03;;;;;;;;;;5135404;28;20823;-86
2023/08/14 02:04:27;;;;;;;20.60;19.20;;;;;;;;;;5135559;28;20424;-86
2023/08/14 02:06:54;;;;;;;21.20;19.90;;;;;;;;;;5136059;28;20474;-86
2023/08/14 02:09:21;;;;;;;20.03;18.73;;;;;;;;;;5135566;28;20442;-86
2023/08/14 02:11:49;;;;;;;21.00;19.70;;;;;;;;;;5134555;28;20443;-86
2023/08/14 02:14:19;;;;;;;20.93;19.40;;;;;;;;;;5136410;28;20447;-86
2023/08/14 02:16:46;;;;;;;20.10;19.10;;;;;;;;;;5135760;28;20467;-86
2023/08/14 02:19:15;;;;;;;20.77;19.67;;;;;;;;;;5135952;28;20443;-86
2023/08/14 02:21:42;;;;;;;20.40;19.30;;;;;;;;;;5134625;28;20439;-86
2023/08/14 02:24:09;;;;;;;20.60;19.47;;;;;;;;;;5135348;28;20422;-86
2023/08/14 02:26:36;;;;;;;21.63;20.03;;;;;;;;;;5135394;28;20402;-86
2023/08/14 02:29:04;;;;;;;20.90;19.53;;;;;;;;;;5134977;28;20470;-86
2023/08/14 02:31:31;;;;;;;20.60;19.50;;;;;;;;;;5135153;28;20502;-86
2023/08/14 02:33:59;;;;;;;21.30;20.00;;;;;;;;;;5136610;28;20413;-86
2023/08/14 02:36:28;;;;;;;22.13;20.53;;;;;;;;;;5135577;28;20923;-86
2023/08/14 02:38:55;;;;;;;20.93;19.63;;;;;;;;;;5134942;28;20968;-86
2023/08/14 02:41:22;;;;;;;21.67;20.10;;;;;;;;;;5134513;28;20447;-86
2023/08/14 02:43:49;;;;;;;20.10;18.77;;;;;;;;;;5135128;28;20451;-86
2023/08/14 02:46:16;;;;;;;19.53;18.30;;;;;;;;;;5135051;27;20962;-86
2023/08/14 02:48:45;;;;;;;21.37;19.97;;;;;;;;;;5138369;27;20414;-86
2023/08/14 02:51:12;;;;;;;20.13;18.83;;;;;;;;;;5139235;27;20853;-86
2023/08/14 02:53:40;;;;;;;19.33;18.20;;;;;;;;;;5138877;27;20482;-86
2023/08/14 02:56:08;;;;;;;21.40;19.93;;;;;;;;;;5140617;27;20439;-86
2023/08/14 02:58:35;;;;;;;19.80;18.63;;;;;;;;;;5147657;27;20421;-87
2023/08/14 03:01:04;;;;;;;20.90;19.80;;;;;;;;;;5146332;27;20417;-86
2023/08/14 03:03:31;;;;;;;20.10;19.00;;;;;;;;;;5147683;27;20465;-86
2023/08/14 03:05:59;;;;;;;20.83;19.47;;;;;;;;;;5146494;27;20454;-87
2023/08/14 03:08:26;;;;;;;21.43;19.90;;;;;;;;;;5146391;27;20443;-87
2023/08/14 03:10:54;;;;;;;21.53;20.00;;;;;;;;;;5147362;27;20483;-86
2023/08/14 03:13:22;;;;;;;19.93;18.83;;;;;;;;;;5153085;27;20475;-86
2023/08/14 03:15:49;;;;;;;21.13;19.63;;;;;;;;;;5156893;27;20438;-86
2023/08/14 03:18:16;;;;;;;20.93;19.70;;;;;;;;;;5156431;27;20447;-86
2023/08/14 03:20:43;;;;;;;20.80;19.60;;;;;;;;;;5147356;27;20427;-86
2023/08/14 03:23:10;;;;;;;21.67;20.37;;;;;;;;;;5143210;27;20462;-86
2023/08/14 03:25:37;;;;;;;20.93;19.13;;;;;;;;;;5143338;27;20458;-86
2023/08/14 03:28:06;;;;;;;20.90;19.60;;;;;;;;;;5143804;27;20450;-86
2023/08/14 03:30:34;;;;;;;21.37;19.93;;;;;;;;;;5141968;27;20991;-86
2023/08/14 03:33:01;;;;;;;20.57;19.37;;;;;;;;;;5142629;27;20470;-86
2023/08/14 03:35:28;;;;;;;20.03;19.00;;;;;;;;;;5142635;27;20471;-87
2023/08/14 03:37:55;;;;;;;20.27;19.17;;;;;;;;;;5142175;27;20446;-86
2023/08/14 03:40:22;;;;;;;19.80;18.70;;;;;;;;;;5141459;27;20447;-86
2023/08/14 03:42:50;;;;;;;20.77;19.20;;;;;;;;;;5141975;27;20465;-86
2023/08/14 03:45:18;;;;;;;20.70;19.37;;;;;;;;;;5141073;27;20467;-86
2023/08/14 03:47:45;;;;;;;19.97;18.83;;;;;;;;;;5141132;27;20811;-86
2023/08/14 03:50:12;;;;;;;20.50;19.33;;;;;;;;;;5140796;27;20497;-86
2023/08/14 03:52:39;;;;;;;21.47;19.90;;;;;;;;;;5141075;27;20524;-86
2023/08/14 03:55:06;;;;;;;20.83;19.57;;;;;;;;;;5141526;27;20447;-86
2023/08/14 03:57:33;;;;;;;21.23;19.50;;;;;;;;;;5140817;27;20428;-86
2023/08/14 04:00:00;;;;;;;20.97;19.60;;;;;;;;;;5140080;27;20521;-86
2023/08/14 04:02:29;;;;;;;20.60;19.50;;;;;;;;;;5140592;27;20964;-86
2023/08/14 04:04:56;;;;;;;20.57;19.37;;;;;;;;;;5140521;27;20451;-86
2023/08/14 04:07:23;;;;;;;20.93;19.63;;;;;;;;;;5147938;27;20442;-86
2023/08/14 04:09:50;;;;;;;21.43;20.13;;;;;;;;;;5141886;27;20435;-86
2023/08/14 04:12:17;;;;;;;20.73;19.43;;;;;;;;;;5138953;27;20490;-86
2023/08/14 04:14:45;;;;;;;22.07;20.67;;;;;;;;;;5138904;27;20905;-81
2023/08/14 04:17:12;;;;;;;21.80;20.30;;;;;;;;;;5137552;27;20810;-81
2023/08/14 04:19:40;;;;;;;22.67;21.17;;;;;;;;;;5137044;27;20459;-81
2023/08/14 04:22:07;;;;;;;21.20;20.10;;;;;;;;;;5136895;27;20475;-81
2023/08/14 04:24:34;;;;;;;21.70;20.50;;;;;;;;;;5140240;27;20940;-80
2023/08/14 04:27:01;;;;;;;21.80;20.30;;;;;;;;;;5138051;27;20438;-82
2023/08/14 04:29:29;;;;;;;21.73;20.33;;;;;;;;;;5138284;27;20445;-80
2023/08/14 04:31:56;;;;;;;21.80;20.00;;;;;;;;;;5140192;27;20452;-81
2023/08/14 04:34:23;;;;;;;21.53;20.00;;;;;;;;;;5139165;27;20439;-81
2023/08/14 04:36:51;;;;;;;22.17;20.77;;;;;;;;;;5139382;27;20447;-81
2023/08/14 04:39:19;;;;;;;20.70;19.50;;;;;;;;;;5139235;27;20455;-82
2023/08/14 04:41:46;;;;;;;21.77;20.50;;;;;;;;;;5136522;27;20467;-82
2023/08/14 04:44:13;;;;;;;21.33;19.93;;;;;;;;;;5137299;27;20424;-81
2023/08/14 04:46:41;;;;;;;21.90;20.30;;;;;;;;;;5138119;27;20439;-80
2023/08/14 04:49:08;;;;;;;20.80;19.60;;;;;;;;;;5137415;27;20924;-82
2023/08/14 04:51:35;;;;;;;20.53;19.40;;;;;;;;;;5137206;27;20486;-82
2023/08/14 04:54:03;;;;;;;21.67;19.80;;;;;;;;;;5134167;27;20462;-81
2023/08/14 04:56:31;;;;;;;20.30;19.00;;;;;;;;;;5135349;27;20453;-81
2023/08/14 04:58:58;;;;;;;21.13;19.80;;;;;;;;;;5135917;27;20443;-81
2023/08/14 05:01:25;;;;;;;21.37;19.97;;;;;;;;;;5139714;27;20835;-81
2023/08/14 05:03:53;;;;;;;21.80;20.70;;;;;;;;;;5136170;27;20475;-80
2023/08/14 05:06:20;;;;;;;23.10;21.60;;;;;;;;;;5137365;27;20451;-81
2023/08/14 05:08:47;;;;;;;21.70;20.30;;;;;;;;;;5136521;27;20474;-80
2023/08/14 05:11:16;;;;;;;21.60;20.20;;;;;;;;;;5135132;27;20457;-81
2023/08/14 05:13:44;;;;;;;21.33;20.00;;;;;;;;;;5135219;27;20487;-80
2023/08/14 05:16:11;;;;;;;28.87;20.33;;;;;;;;;;5138696;27;20435;-80
2023/08/14 05:18:38;;;;;;;20.90;19.70;;;;;;;;;;5140141;27;20514;-80
2023/08/14 05:21:05;;;;;;;21.17;19.97;;;;;;;;;;5139988;27;20454;-81
2023/08/14 05:23:32;;;;;;;22.00;20.53;;;;;;;;;;5139047;27;20471;-81
2023/08/14 05:25:59;;;;;;;21.70;20.30;;;;;;;;;;5137080;27;20442;-80
2023/08/14 05:28:28;;;;;;;20.63;19.53;;;;;;;;;;5135846;27;20468;-80
2023/08/14 05:30:55;;;;;;;22.33;20.50;;;;;;;;;;5135632;27;20605;-80
2023/08/14 05:33:22;;;;;;;21.77;20.47;;;;;;;;;;5135781;28;20977;-81
2023/08/14 05:35:49;;;;;;;21.07;19.77;;;;;;;;;;5136339;28;20402;-80
2023/08/14 05:38:16;;;;;;;20.20;19.20;;;;;;;;;;5135643;28;20447;-80
2023/08/14 05:40:43;;;;;;;21.57;20.33;;;;;;;;;;5135055;28;20450;-80
2023/08/14 05:43:12;;;;;;;20.60;19.30;;;;;;;;;;5135609;28;20441;-80
2023/08/14 05:45:42;;;;;;;22.33;20.60;;;;;;;;;;5135323;28;20471;-81
2023/08/14 05:48:10;;;;;;;22.13;20.53;;;;;;;;;;5135733;28;20432;-81
2023/08/14 05:50:38;;;;;;;22.17;20.87;;;;;;;;;;5134622;28;20425;-81
2023/08/14 05:53:06;;;;;;;21.57;20.17;;;;;;;;;;5134830;28;20449;-87
2023/08/14 05:55:34;;;;;;;21.70;20.23;;;;;;;;;;5134543;28;20507;-81
2023/08/14 05:58:02;;;;;;;20.77;19.40;;;;;;;;;;5134655;28;20938;-81
2023/08/14 06:00:29;;;;;;;21.47;20.20;;;;;;;;;;5134637;28;20474;-81
2023/08/14 06:02:58;;;;;;;21.17;19.97;;;;;;;;;;5135322;28;20442;-81
2023/08/14 06:05:25;;;;;;;22.27;20.90;;;;;;;;;;5134801;28;20443;-81
2023/08/14 06:07:53;;;;;;;23.63;21.83;;;;;;;;;;5135044;28;20434;-81
2023/08/14 06:10:20;;;;;;;20.83;19.53;;;;;;;;;;5133523;28;20464;-80
2023/08/14 06:12:48;;;;;;;22.10;20.47;;;;;;;;;;5134734;28;20932;-81
2023/08/14 06:15:15;;;;;;;21.50;20.20;;;;;;;;;;5135152;28;20450;-81
2023/08/14 06:17:43;;;;;;;21.30;20.00;;;;;;;;;;5134982;28;20873;-81
2023/08/14 06:20:12;;;;;;;20.30;19.10;;;;;;;;;;5134224;28;20782;-81
2023/08/14 06:22:40;;;;;;;22.73;21.07;;;;;;;;;;5137710;27;20999;-82
2023/08/14 06:25:08;;;;;;;21.90;20.40;;;;;;;;;;5139040;27;20909;-82
2023/08/14 06:27:35;;;;;;;21.43;20.00;;;;;;;;;;5139127;27;20450;-81
2023/08/14 06:30:02;;;;;;;21.60;20.30;;;;;;;;;;5138103;27;20443;-82
2023/08/14 06:32:29;;;;;;;21.90;20.60;;;;;;;;;;5138383;27;20816;-82
2023/08/14 06:34:56;;;;;;;22.27;20.67;;;;;;;;;;5138608;27;20425;-81
2023/08/14 06:37:24;;;;;;;22.13;20.53;;;;;;;;;;5138594;27;20468;-82
2023/08/14 06:39:51;;;;;;;22.40;21.00;;;;;;;;;;5137822;27;20412;-82
2023/08/14 06:42:19;;;;;;;22.20;20.80;;;;;;;;;;5137913;27;20463;-81
2023/08/14 06:44:46;;;;;;;22.60;21.17;;;;;;;;;;5138389;27;20442;-82
2023/08/14 06:47:13;;;;;;;22.47;20.87;;;;;;;;;;5138385;27;20439;-81
2023/08/14 06:49:40;;;;;;;22.47;20.77;;;;;;;;;;5136733;27;20447;-82
2023/08/14 06:52:07;;;;;;;22.27;20.90;;;;;;;;;;5117849;28;20487;-81
2023/08/14 06:54:36;;;;;;;22.03;20.73;;;;;;;;;;5118371;28;20448;-82
2023/08/14 06:57:03;;;;;;;21.80;20.23;;;;;;;;;;5118065;28;20448;-82
2023/08/14 06:59:31;;;;;;;22.83;21.17;;;;;;;;;;5118277;28;20433;-81
2023/08/14 07:01:58;;;;;;;21.53;19.97;;;;;;;;;;5116742;28;20502;-82
2023/08/14 07:04:25;;;;;;;23.40;21.80;;;;;;;;;;5117702;28;20502;-80
2023/08/14 07:06:52;;;;;;;22.10;20.40;;;;;;;;;;5117243;28;20447;-80
2023/08/14 07:09:19;;;;;;;23.30;21.80;;;;;;;;;;5116455;28;20457;-81
2023/08/14 07:11:48;;;;;;;23.07;21.37;;;;;;;;;;5116444;28;20510;-81
2023/08/14 07:14:15;;;;;;;21.70;20.40;;;;;;;;;;5117329;28;20432;-81
2023/08/14 07:16:42;;;;;;;22.63;21.13;;;;;;;;;;5117538;28;20979;-81
2023/08/14 07:19:09;;;;;;;22.90;21.30;;;;;;;;;;5117282;28;20460;-82
2023/08/14 07:21:36;;;;;;;21.90;20.70;;;;;;;;;;5116995;28;20810;-82
2023/08/14 07:24:04;;;;;;;24.40;22.80;;;;;;;;;;5117332;28;20440;-81
2023/08/14 07:26:31;;;;;;;23.00;21.50;;;;;;;;;;5116904;28;20435;-80
2023/08/14 07:28:59;;;;;;;24.23;22.30;;;;;;;;;;5116815;28;20434;-77
2023/08/14 07:31:26;;;;;;;22.93;21.33;;;;;;;;;;5116028;28;20488;-80
2023/08/14 07:33:53;;;;;;;21.80;20.43;;;;;;;;;;5115492;28;20491;-79
2023/08/14 07:36:20;;;;;;;22.43;21.03;;;;;;;;;;5116651;28;20454;-80
2023/08/14 07:38:47;;;;;;;22.80;21.40;;;;;;;;;;5128980;27;20993;-79
2023/08/14 07:41:14;;;;;;;22.37;20.97;;;;;;;;;;5137663;27;20416;-80
2023/08/14 07:43:41;;;;;;;23.63;21.90;;;;;;;;;;5137964;27;20462;-81
2023/08/14 07:46:11;;;;;;;22.97;21.37;;;;;;;;;;5132453;27;20443;-80
2023/08/14 07:48:38;;;;;;;22.07;20.67;;;;;;;;;;5137814;27;20502;-80
2023/08/14 07:51:05;;;;;;;23.57;21.70;;;;;;;;;;5136113;27;20867;-80
2023/08/14 07:53:33;;;;;;;22.13;20.70;;;;;;;;;;5135974;27;20491;-80
2023/08/14 07:56:00;;;;;;;22.50;21.10;;;;;;;;;;5137112;27;20450;-80
2023/08/14 07:58:27;;;;;;;23.03;21.23;;;;;;;;;;5137700;27;20450;-80
2023/08/14 08:00:55;;;;;;;22.97;21.17;;;;;;;;;;5137289;27;20459;-80
2023/08/14 08:03:24;;;;;;;22.60;20.93;;;;;;;;;;5137485;27;20466;-81
2023/08/14 08:05:51;;;;;;;20.77;19.67;;;;;;;;;;5137041;27;20944;-81
2023/08/14 08:08:18;;;;;;;22.23;20.63;;;;;;;;;;5137537;27;20478;-81
2023/08/14 08:10:45;;;;;;;22.33;20.70;;;;;;;;;;5136475;27;20470;-81
2023/08/14 08:13:12;;;;;;;22.50;21.10;;;;;;;;;;5136443;27;20494;-81
2023/08/14 08:15:39;;;;;;;22.67;21.17;;;;;;;;;;5137381;27;20797;-80
2023/08/14 08:18:06;;;;;;;22.47;20.80;;;;;;;;;;5137622;27;20439;-79
2023/08/14 08:20:35;;;;;;;22.73;21.23;;;;;;;;;;5136024;27;20467;-79
2023/08/14 08:23:03;;;;;;;23.00;21.10;;;;;;;;;;5137301;27;21113;-80
2023/08/14 08:25:31;;;;;;;22.20;20.70;;;;;;;;;;5137386;27;20552;-80
2023/08/14 08:27:58;;;;;;;22.87;21.37;;;;;;;;;;5137444;27;20950;-79
2023/08/14 08:30:25;;;;;;;21.33;19.93;;;;;;;;;;5135792;27;20463;-81
2023/08/14 08:32:52;;;;;;;21.83;20.37;;;;;;;;;;5135910;27;20497;-79
2023/08/14 08:35:19;;;;;;;23.00;21.30;;;;;;;;;;5136438;27;20446;-80
2023/08/14 08:37:47;;;;;;;23.17;21.47;;;;;;;;;;5135904;27;20443;-78
2023/08/14 08:40:14;;;;;;;21.97;20.40;;;;;;;;;;5135766;27;20820;-82
2023/08/14 08:42:42;;;;;;;22.13;20.73;;;;;;;;;;5137256;27;20486;-81
2023/08/14 08:45:09;;;;;;;22.63;21.03;;;;;;;;;;5138459;27;20447;-81
2023/08/14 08:47:39;;;;;;;22.10;20.43;;;;;;;;;;5137714;27;20482;-81
2023/08/14 08:50:06;;;;;;;23.10;21.20;;;;;;;;;;5137275;27;20445;-80
2023/08/14 08:52:36;;;;;;;22.17;20.43;;;;;;;;;;5135380;27;20494;-81
2023/08/14 08:55:05;;;;;;;22.53;20.67;;;;;;;;;;5137274;27;20491;-80
2023/08/14 08:57:32;;;;;;;21.90;20.10;;;;;;;;;;5137327;27;20447;-81
2023/08/14 09:00:01;;;;;;;22.97;21.57;;;;;;;;;;5131910;27;20415;-80
2023/08/14 09:02:29;;;;;;;22.90;21.50;;;;;;;;;;5115756;28;20476;-80
2023/08/14 09:04:56;;;;;;;22.47;20.77;;;;;;;;;;5124972;27;20456;-81
2023/08/14 09:07:23;;;;;;;22.70;21.10;;;;;;;;;;5115236;27;20452;-81
2023/08/14 09:09:50;;;;;;;23.83;22.23;;;;;;;;;;5125751;27;20496;-82
2023/08/14 09:12:18;;;;;;;23.87;22.27;;;;;;;;;;5113511;28;20478;-81
2023/08/14 09:14:46;;;;;;;22.87;21.27;;;;;;;;;;5114110;28;20478;-81
2023/08/14 09:17:13;;;;;;;23.77;22.10;;;;;;;;;;5114172;28;20444;-80
2023/08/14 09:19:41;;;;;;;24.07;22.37;;;;;;;;;;5114390;28;20440;-81
2023/08/14 09:22:08;;;;;;;24.30;22.53;;;;;;;;;;5114023;28;21100;-81
2023/08/14 09:24:36;;;;;;;24.87;22.97;;;;;;;;;;5114655;28;20413;-81
2023/08/14 09:27:03;;;;;;;24.60;22.60;;;;;;;;;;5114995;28;20890;-81
2023/08/14 09:29:35;;;;;;;23.60;22.10;;;;;;;;;;5115202;28;20440;-80
2023/08/14 09:35:06;;;;;;;24.47;22.60;;;;;;;;;;5124369;28;20540;-81
2023/08/14 09:37:36;;;;;;;24.53;22.77;;;;;;;;;;5135548;28;21058;-80
2023/08/14 09:40:10;;;;;;;24.70;23.10;;;;;;;;;;5134191;28;21029;-83
2023/08/14 09:42:38;;;;;;;23.47;22.00;;;;;;;;;;5134977;28;21111;-80
2023/08/14 09:45:08;;;;;;;24.03;22.43;;;;;;;;;;5136258;28;20416;-82
2023/08/14 09:47:35;;;;;;;25.63;23.80;;;;;;;;;;5135942;28;20470;-81
2023/08/14 09:50:03;;;;;;;24.40;22.70;;;;;;;;;;5135374;28;20890;-81
2023/08/14 09:52:30;;;;;;;22.27;20.80;;;;;;;;;;5135445;28;20514;-81
2023/08/14 09:54:58;;;;;;;23.20;21.60;;;;;;;;;;5135452;28;20838;-81
2023/08/14 09:57:25;;;;;;;24.57;22.70;;;;;;;;;;5139087;27;20420;-81
2023/08/14 09:59:53;;;;;;;24.37;22.77;;;;;;;;;;5135870;27;20538;-81
2023/08/14 10:02:23;;;;;;;23.00;21.60;;;;;;;;;;5125936;27;20979;-82
2023/08/14 10:04:50;;;;;;;24.53;22.57;;;;;;;;;;5140030;27;20470;-81
2023/08/14 10:07:18;;;;;;;23.90;22.10;;;;;;;;;;5140057;27;20443;-81
2023/08/14 10:09:45;;;;;;;23.23;21.83;;;;;;;;;;5140008;27;20441;-80
2023/08/14 10:12:13;;;;;;;24.37;22.70;;;;;;;;;;5140245;27;20491;-81
2023/08/14 10:14:42;;;;;;;25.47;23.20;;;;;;;;;;5139542;27;20474;-82
2023/08/14 10:17:14;;;;;;;24.23;22.63;;;;;;;;;;5139449;27;20946;-80
2023/08/14 10:19:43;;;;;;;24.07;22.37;;;;;;;;;;5140193;27;20431;-81
2023/08/14 10:22:10;;;;;;;24.63;22.80;;;;;;;;;;5140378;27;20469;-81
2023/08/14 10:24:39;;;;;;;24.07;22.43;;;;;;;;;;5139973;27;20425;-80
2023/08/14 10:27:06;;;;;;;24.43;22.73;;;;;;;;;;5139430;27;20557;-81
2023/08/14 10:29:34;;;;;;;24.17;22.67;;;;;;;;;;5140191;27;20451;-81
2023/08/14 10:32:01;;;;;;;25.40;23.33;;;;;;;;;;5139917;27;20470;-80
2023/08/14 10:34:30;;;;;;;24.17;22.40;;;;;;;;;;5139947;27;20473;-81
2023/08/14 10:36:58;;;;;;;24.03;22.43;;;;;;;;;;5127422;27;20482;-80
2023/08/14 10:39:33;;;;;;;24.70;22.93;;;;;;;;;;5135806;27;20466;-80
2023/08/14 10:42:01;;;;;;;25.00;22.93;;;;;;;;;;5117601;27;20487;-81
2023/08/14 10:44:33;;;;;;;24.03;22.20;;;;;;;;;;5116704;27;20432;-81
2023/08/14 10:47:05;;;;;;;24.97;23.07;;;;;;;;;;5117745;28;20509;-81
2023/08/14 10:49:37;;;;;;;24.80;22.93;;;;;;;;;;5118049;28;20456;-82
2023/08/14 10:52:07;;;;;;;25.10;23.20;;;;;;;;;;5117567;28;20479;-81
2023/08/14 10:57:39;;;;;;;24.10;22.50;;;;;;;;;;5121220;27;20473;-81
2023/08/14 11:00:20;;;;;;;24.27;22.60;;;;;;;;;;5119145;28;20464;-80
2023/08/14 11:02:50;;;;;;;24.53;22.70;;;;;;;;;;5120606;28;20835;-81
2023/08/14 11:05:17;;;;;;;24.43;22.73;;;;;;;;;;5120884;28;20850;-80
2023/08/14 11:07:57;;;;;;;25.43;23.33;;;;;;;;;;5119404;28;20411;-79
2023/08/14 11:10:25;;;;;;;24.83;23.10;;;;;;;;;;5133186;27;20447;-80
2023/08/14 11:12:52;;;;;;;24.43;22.70;;;;;;;;;;5140387;27;20467;-80
2023/08/14 11:15:20;;;;;;;25.00;22.97;;;;;;;;;;5130000;27;20447;-80
2023/08/14 11:17:48;;;;;;;24.20;22.50;;;;;;;;;;5121165;28;20432;-80
2023/08/14 11:20:15;;;;;;;23.73;21.90;;;;;;;;;;5121434;28;20468;-80
2023/08/14 11:22:44;;;;;;;24.90;23.20;;;;;;;;;;5129157;27;20459;-82
2023/08/14 11:25:15;;;;;;;24.90;22.77;;;;;;;;;;5119222;27;20484;-83
2023/08/14 11:27:42;;;;;;;24.70;22.77;;;;;;;;;;5119035;27;20501;-83
2023/08/14 11:30:10;;;;;;;24.27;22.77;;;;;;;;;;5140022;27;20459;-82
2023/08/14 11:32:37;;;;;;;23.97;22.23;;;;;;;;;;5141490;27;20551;-82
2023/08/14 11:35:04;;;;;;;23.73;21.97;;;;;;;;;;5139886;27;20500;-83
2023/08/14 11:37:31;;;;;;;23.87;22.17;;;;;;;;;;5130652;27;20443;-82
2023/08/14 11:40:01;;;;;;;23.20;21.33;;;;;;;;;;5137915;27;20460;-82
2023/08/14 11:42:30;;;;;;;25.43;23.23;;;;;;;;;;5130516;27;20472;-83
2023/08/14 11:44:57;;;;;;;24.30;22.60;;;;;;;;;;5122569;28;20443;-81
2023/08/14 11:47:24;;;;;;;23.93;22.23;;;;;;;;;;5118078;28;20448;-83
2023/08/14 11:49:51;;;;;;;24.00;22.30;;;;;;;;;;5117879;28;20955;-82
2023/08/14 11:52:19;;;;;;;23.57;22.03;;;;;;;;;;5117806;28;20468;-82
2023/08/14 11:54:46;;;;;;;24.00;22.40;;;;;;;;;;5118005;28;20480;-82
2023/08/14 11:57:14;;;;;;;24.23;22.33;;;;;;;;;;5117565;28;20456;-83
2023/08/14 11:59:44;;;;;;;22.40;21.03;;;;;;;;;;5118350;28;20451;-82
2023/08/14 12:02:11;;;;;;;22.90;21.40;;;;;;;;;;5118590;28;20467;-82
2023/08/14 12:04:40;;;;;;;24.13;22.40;;;;;;;;;;5118068;28;20464;-82
2023/08/14 12:07:07;;;;;;;25.23;23.43;;;;;;;;;;5117792;28;20443;-82
2023/08/14 12:09:36;;;;;;;25.03;23.23;;;;;;;;;;5117904;28;20423;-82
2023/08/14 12:12:03;;;;;;;24.17;22.47;;;;;;;;;;5116630;28;20563;-82
2023/08/14 12:14:38;;;;;;;25.07;23.33;;;;;;;;;;5117332;28;20502;-82
2023/08/14 12:17:10;;;;;;;24.77;23.07;;;;;;;;;;5117092;28;20424;-82
2023/08/14 12:19:38;;;;;;;24.40;22.80;;;;;;;;;;5119483;28;20437;-82
2023/08/14 12:22:07;;;;;;;23.97;22.33;;;;;;;;;;5118628;28;20464;-82
2023/08/14 12:24:38;;;;;;;25.00;23.20;;;;;;;;;;5118943;28;20451;-82
2023/08/14 12:27:05;;;;;;;24.20;22.60;;;;;;;;;;5117849;28;20439;-82
2023/08/14 12:29:32;;;;;;;24.40;22.80;;;;;;;;;;5118970;28;20451;-82
2023/08/14 12:32:00;;;;;;;23.23;21.83;;;;;;;;;;5117475;28;20451;-82
2023/08/14 12:34:32;;;;;;;25.87;23.93;;;;;;;;;;5117190;28;20482;-82
2023/08/14 12:36:59;;;;;;;23.93;22.33;;;;;;;;;;5117416;28;20464;-82
2023/08/14 12:39:26;;;;;;;25.13;23.00;;;;;;;;;;5117350;28;20944;-84
2023/08/14 12:41:56;;;;;;;24.40;22.80;;;;;;;;;;5117132;28;21092;-82
2023/08/14 12:44:23;;;;;;;23.40;22.00;;;;;;;;;;5119484;28;20432;-82
2023/08/14 12:46:50;;;;;;;25.30;23.57;;;;;;;;;;5118337;28;20471;-81
2023/08/14 12:49:17;;;;;;;24.53;22.90;;;;;;;;;;5116585;28;20432;-83
2023/08/14 12:51:51;;;;;;;23.37;22.00;;;;;;;;;;5123134;28;20414;-83
2023/08/14 12:54:18;;;;;;;24.13;22.50;;;;;;;;;;5101186;28;20474;-83
2023/08/14 12:56:45;;;;;;;25.07;23.17;;;;;;;;;;5120144;28;20458;-82
2023/08/14 12:59:13;;;;;;;24.70;23.00;;;;;;;;;;5120969;28;20960;-83
2023/08/14 13:01:40;;;;;;;24.67;22.97;;;;;;;;;;5117769;28;20835;-83
2023/08/14 13:04:07;;;;;;;23.17;21.77;;;;;;;;;;5119195;28;20452;-82
2023/08/14 13:06:37;;;;;;;24.00;22.50;;;;;;;;;;5117438;28;20455;-82
2023/08/14 13:09:06;;;;;;;24.93;23.23;;;;;;;;;;5120050;28;20996;-83
2023/08/14 13:11:33;;;;;;;25.70;23.83;;;;;;;;;;5120547;28;20863;-83
2023/08/14 13:14:00;;;;;;;25.10;23.50;;;;;;;;;;5121077;28;20552;-83
2023/08/14 13:16:28;;;;;;;24.60;23.00;;;;;;;;;;5119258;28;20426;-83
2023/08/14 13:18:55;;;;;;;25.57;23.77;;;;;;;;;;5126703;28;20440;-83
2023/08/14 13:21:25;;;;;;;25.23;23.40;;;;;;;;;;5128216;28;20496;-83
2023/08/14 13:23:52;;;;;;;25.70;23.80;;;;;;;;;;5132003;28;20491;-83
2023/08/14 13:26:21;;;;;;;24.20;22.40;;;;;;;;;;5134588;28;20433;-83
2023/08/14 13:28:48;;;;;;;26.03;23.80;;;;;;;;;;5125614;28;20448;-83
2023/08/14 13:31:15;;;;;;;24.43;22.83;;;;;;;;;;5114993;28;20444;-82
2023/08/14 13:33:42;;;;;;;23.30;21.80;;;;;;;;;;5117029;28;20825;-82
2023/08/14 13:36:09;;;;;;;24.63;22.83;;;;;;;;;;5115981;28;20443;-82
2023/08/14 13:38:36;;;;;;;24.97;23.10;;;;;;;;;;5117777;28;20514;-82
2023/08/14 13:41:03;;;;;;;24.17;22.57;;;;;;;;;;5116938;28;20463;-82
2023/08/14 13:43:32;;;;;;;25.17;23.30;;;;;;;;;;5116233;28;20476;-82
2023/08/14 13:45:59;;;;;;;26.30;24.40;;;;;;;;;;5118213;28;20851;-83
2023/08/14 13:48:26;;;;;;;25.97;24.13;;;;;;;;;;5118684;28;20423;-83
2023/08/14 13:50:53;;;;;;;25.73;23.83;;;;;;;;;;5117665;28;20443;-83
2023/08/14 13:53:20;;;;;;;24.70;22.90;;;;;;;;;;5116558;28;21342;-82
2023/08/14 13:55:47;;;;;;;25.17;23.37;;;;;;;;;;5116181;28;20451;-82
2023/08/14 13:58:14;;;;;;;24.50;22.80;;;;;;;;;;5117387;28;20441;-82
2023/08/14 14:00:43;;;;;;;24.53;23.03;;;;;;;;;;5115890;28;20448;-82
2023/08/14 14:03:10;;;;;;;25.07;23.43;;;;;;;;;;5116083;28;20472;-82
2023/08/14 14:05:37;;;;;;;25.23;23.10;;;;;;;;;;5115558;28;20468;-82
2023/08/14 14:08:04;;;;;;;25.40;23.47;;;;;;;;;;5115560;28;20444;-83
2023/08/14 14:10:31;;;;;;;25.70;23.90;;;;;;;;;;5115256;28;20867;-81
2023/08/14 14:12:58;;;;;;;25.10;23.20;;;;;;;;;;5114805;28;20475;-82
2023/08/14 14:15:25;;;;;;;24.60;22.80;;;;;;;;;;5113685;28;20532;-80
2023/08/14 14:17:54;;;;;;;25.27;23.27;;;;;;;;;;5114343;28;20468;-79
2023/08/14 14:20:21;;;;;;;23.83;22.27;;;;;;;;;;5116125;28;20477;-79
2023/08/14 14:22:48;;;;;;;23.53;22.00;;;;;;;;;;5120794;28;20460;-78
2023/08/14 14:25:15;;;;;;;24.50;22.90;;;;;;;;;;5121701;28;20447;-80